Time;durP1;ratioP1;P1;durP2;ratioP2;P2;SDS_P1;SDS_P2;PMS_P1;PMS_P2;Temp;Humidity;BMP_temperature;BMP_pressure;BME280_temperature;BME280_humidity;BME280_pressure;Samples;Min_cycle;Max_cycle;Signal;HPM_P1;HPM_P2
2024/01/24 00:02:10;;;;;;;20.50;14.70;;;5.30;93.80;;;;;;5045440;28;20037;-75
2024/01/24 00:04:37;;;;;;;23.65;13.68;;;5.30;93.70;;;;;;5046632;28;20475;-72
2024/01/24 00:07:05;;;;;;;24.00;14.18;;;5.30;93.70;;;;;;5046560;28;20041;-73
2024/01/24 00:09:33;;;;;;;21.02;13.80;;;5.20;93.90;;;;;;5034764;28;20025;-70
2024/01/24 00:12:01;;;;;;;18.80;11.98;;;5.30;93.80;;;;;;5053090;28;20056;-73
2024/01/24 00:14:28;;;;;;;19.85;12.65;;;5.50;93.30;;;;;;5043687;28;20057;-71
2024/01/24 00:16:56;;;;;;;20.90;12.60;;;5.40;93.40;;;;;;5052295;28;20144;-73
2024/01/24 00:19:23;;;;;;;20.80;13.60;;;5.30;93.60;;;;;;5041653;28;20049;-71
2024/01/24 00:21:51;;;;;;;21.98;13.95;;;5.20;93.70;;;;;;5034292;28;20029;-73
2024/01/24 00:24:18;;;;;;;22.25;13.88;;;5.20;93.90;;;;;;5041820;28;20519;-73
2024/01/24 00:26:45;;;;;;;21.05;14.43;;;5.30;93.90;;;;;;5032382;28;20048;-71
2024/01/24 00:29:13;;;;;;;22.85;15.20;;;5.20;93.80;;;;;;5029116;28;20619;-70
2024/01/24 00:31:40;;;;;;;23.15;14.88;;;5.20;93.90;;;;;;5046919;28;20048;-70
2024/01/24 00:34:08;;;;;;;26.33;15.90;;;5.20;94.10;;;;;;5040509;28;20033;-71
2024/01/24 00:36:35;;;;;;;29.05;17.40;;;5.20;94.20;;;;;;5044279;28;20360;-71
2024/01/24 00:39:03;;;;;;;24.13;15.70;;;5.20;94.30;;;;;;5038421;28;20388;-76
2024/01/24 00:41:31;;;;;;;20.80;14.57;;;5.10;94.30;;;;;;5027143;28;20420;-72
2024/01/24 00:43:58;;;;;;;22.77;15.30;;;5.10;94.50;;;;;;5026974;28;20026;-74
2024/01/24 00:46:26;;;;;;;22.17;13.82;;;4.90;94.50;;;;;;5043322;28;20486;-71
2024/01/24 00:48:53;;;;;;;21.38;14.02;;;4.90;94.90;;;;;;5045411;28;20100;-72
2024/01/24 00:51:21;;;;;;;20.02;13.00;;;5.00;94.60;;;;;;5049999;28;20108;-74
2024/01/24 00:53:53;;;;;;;22.48;13.55;;;5.10;94.50;;;;;;5050142;28;20032;-69
2024/01/24 00:56:21;;;;;;;18.17;13.35;;;4.90;94.90;;;;;;5038593;28;20419;-72
2024/01/24 00:58:48;;;;;;;22.50;13.88;;;5.00;94.70;;;;;;5049962;28;20044;-72
2024/01/24 01:01:16;;;;;;;22.33;14.13;;;5.00;94.60;;;;;;5049726;28;20403;-73
2024/01/24 01:03:43;;;;;;;20.75;13.80;;;5.00;94.60;;;;;;5037931;28;20357;-71
2024/01/24 01:06:11;;;;;;;19.45;13.48;;;5.00;94.60;;;;;;5037032;28;20049;-73
2024/01/24 01:08:38;;;;;;;22.90;14.70;;;5.00;94.60;;;;;;5028787;28;20036;-77
2024/01/24 01:11:06;;;;;;;19.17;13.70;;;4.90;94.70;;;;;;5042415;28;20084;-75
2024/01/24 01:13:34;;;;;;;20.75;14.23;;;4.90;95.00;;;;;;5034270;28;20431;-74
2024/01/24 01:16:01;;;;;;;24.55;13.77;;;5.00;95.00;;;;;;5044319;28;20036;-74
2024/01/24 01:18:29;;;;;;;23.23;14.05;;;5.00;94.90;;;;;;5035133;28;20033;-70
2024/01/24 01:20:56;;;;;;;22.05;14.48;;;4.90;95.20;;;;;;5018410;28;20132;-75
2024/01/24 01:23:24;;;;;;;23.42;13.95;;;4.70;95.40;;;;;;5041917;28;20384;-73
2024/01/24 01:25:52;;;;;;;22.08;13.32;;;4.80;95.40;;;;;;4996427;28;20045;-73
2024/01/24 01:28:19;;;;;;;20.50;15.05;;;4.90;95.20;;;;;;5047252;28;20040;-74
2024/01/24 01:30:46;;;;;;;18.45;13.68;;;4.80;95.40;;;;;;5045526;28;20048;-73
2024/01/24 01:33:14;;;;;;;19.48;13.75;;;4.90;95.50;;;;;;5042276;28;20055;-72
2024/01/24 01:35:41;;;;;;;19.55;13.70;;;4.90;95.20;;;;;;5045655;28;20049;-72
2024/01/24 01:38:09;;;;;;;19.25;13.10;;;4.90;95.20;;;;;;5037254;28;20041;-70
2024/01/24 01:40:36;;;;;;;16.05;12.52;;;5.00;95.30;;;;;;5049781;28;20624;-73
2024/01/24 01:43:27;;;;;;;17.85;12.05;;;5.00;95.00;;;;;;5046033;28;20164;-72
2024/01/24 01:46:01;;;;;;;17.15;12.07;;;5.00;95.00;;;;;;5030128;28;20060;-70
2024/01/24 01:48:29;;;;;;;18.90;12.90;;;5.00;95.00;;;;;;5035414;28;20092;-69
2024/01/24 01:50:56;;;;;;;19.05;11.73;;;4.90;95.10;;;;;;5030935;28;20044;-74
2024/01/24 01:53:24;;;;;;;19.30;12.95;;;4.90;95.20;;;;;;5031049;28;20375;-69
2024/01/24 01:55:51;;;;;;;22.35;11.90;;;5.00;95.10;;;;;;5024958;28;20426;-77
2024/01/24 01:58:21;;;;;;;17.33;11.90;;;5.00;95.00;;;;;;5019962;28;20101;-69
2024/01/24 02:00:50;;;;;;;21.25;13.52;;;5.10;94.90;;;;;;5048645;28;20091;-71
2024/01/24 02:03:17;;;;;;;16.67;11.82;;;5.20;94.80;;;;;;5048512;28;20115;-69
2024/01/24 02:05:45;;;;;;;17.92;12.70;;;5.10;94.70;;;;;;5028011;28;20185;-71
2024/01/24 02:08:12;;;;;;;19.45;12.50;;;5.00;94.70;;;;;;5015620;28;20037;-73
2024/01/24 02:10:40;;;;;;;19.02;12.75;;;5.00;95.00;;;;;;5029419;28;20451;-73
2024/01/24 02:13:07;;;;;;;18.65;12.00;;;4.80;95.10;;;;;;5040601;28;20043;-70
2024/01/24 02:15:34;;;;;;;16.17;11.38;;;4.80;95.10;;;;;;5002991;28;20121;-70
2024/01/24 02:18:02;;;;;;;17.73;11.27;;;5.00;94.80;;;;;;5044170;28;20748;-74
2024/01/24 02:20:31;;;;;;;14.23;9.80;;;4.90;94.70;;;;;;5050267;28;20037;-72
2024/01/24 02:22:59;;;;;;;14.93;10.57;;;5.00;94.20;;;;;;5049720;28;20045;-71
2024/01/24 02:25:26;;;;;;;11.70;9.60;;;5.10;93.70;;;;;;5051197;28;20282;-72
2024/01/24 02:27:53;;;;;;;18.92;12.30;;;5.30;93.50;;;;;;5050869;28;20039;-74
2024/01/24 02:30:21;;;;;;;20.65;14.82;;;5.20;94.10;;;;;;5037985;28;20029;-72
2024/01/24 02:32:51;;;;;;;19.88;14.55;;;5.00;94.70;;;;;;5053415;28;20048;-74
2024/01/24 02:35:18;;;;;;;13.25;10.50;;;4.60;95.80;;;;;;5032629;28;20041;-71
2024/01/24 02:37:46;;;;;;;13.38;10.63;;;4.70;95.30;;;;;;5046997;28;20774;-74
2024/01/24 02:40:13;;;;;;;23.67;12.48;;;5.00;94.10;;;;;;5023548;28;20123;-73
2024/01/24 02:42:40;;;;;;;19.20;12.98;;;4.90;94.70;;;;;;5037383;28;20116;-72
2024/01/24 02:45:08;;;;;;;20.23;14.30;;;4.80;95.20;;;;;;5042134;28;20041;-74
2024/01/24 02:47:36;;;;;;;19.42;13.73;;;4.70;95.50;;;;;;5028727;28;20034;-74
2024/01/24 02:50:04;;;;;;;19.85;14.90;;;4.70;95.70;;;;;;5033375;28;20025;-72
2024/01/24 02:52:32;;;;;;;18.80;12.25;;;4.70;95.70;;;;;;5042800;28;20041;-71
2024/01/24 02:54:59;;;;;;;15.57;11.65;;;4.70;95.30;;;;;;5052110;28;20029;-71
2024/01/24 02:57:26;;;;;;;18.88;12.60;;;4.80;95.20;;;;;;5022867;28;20391;-73
2024/01/24 02:59:54;;;;;;;17.63;12.55;;;4.70;95.10;;;;;;5053008;28;20102;-70
2024/01/24 03:02:21;;;;;;;18.00;13.10;;;4.70;95.20;;;;;;5022219;28;20112;-74
2024/01/24 03:04:49;;;;;;;20.63;13.35;;;4.70;95.20;;;;;;5040037;28;20417;-71
2024/01/24 03:07:16;;;;;;;16.85;11.48;;;4.70;95.20;;;;;;5046021;28;20037;-71
2024/01/24 03:09:44;;;;;;;15.10;11.50;;;4.80;95.10;;;;;;5031993;28;20116;-73
2024/01/24 03:12:12;;;;;;;18.13;11.05;;;4.80;94.80;;;;;;5040327;28;20049;-75
2024/01/24 03:14:40;;;;;;;14.02;10.27;;;4.90;94.40;;;;;;5052647;28;20037;-73
2024/01/24 03:17:08;;;;;;;15.52;11.15;;;5.00;94.40;;;;;;5051958;28;20045;-71
2024/01/24 03:19:35;;;;;;;14.05;11.02;;;5.00;94.30;;;;;;5052120;28;20142;-73
2024/01/24 03:22:02;;;;;;;20.38;12.15;;;5.00;94.30;;;;;;5035242;28;20041;-70
2024/01/24 03:24:30;;;;;;;16.70;11.85;;;4.70;94.90;;;;;;5050126;28;20443;-72
2024/01/24 03:26:57;;;;;;;20.35;13.50;;;4.60;95.10;;;;;;5053064;28;20053;-73
2024/01/24 03:29:24;;;;;;;18.90;13.52;;;4.50;95.60;;;;;;5033922;28;20439;-71
2024/01/24 03:31:52;;;;;;;20.65;15.00;;;4.30;96.20;;;;;;5052928;28;20087;-72
2024/01/24 03:34:20;;;;;;;19.42;13.30;;;4.30;96.40;;;;;;5051632;28;20045;-75
2024/01/24 03:36:47;;;;;;;23.67;13.90;;;4.20;96.10;;;;;;5031656;28;20042;-70
2024/01/24 03:39:15;;;;;;;22.67;14.75;;;4.20;96.50;;;;;;5034036;28;20387;-70
2024/01/24 03:41:42;;;;;;;25.83;14.30;;;4.20;96.60;;;;;;5044120;28;20041;-71
2024/01/24 03:44:10;;;;;;;19.13;13.75;;;4.30;96.60;;;;;;5051635;28;20033;-71
2024/01/24 03:46:37;;;;;;;20.27;14.30;;;4.20;96.40;;;;;;5052431;28;20043;-72
2024/01/24 03:49:05;;;;;;;20.63;14.25;;;4.30;96.50;;;;;;5042931;28;20076;-71
2024/01/24 03:51:32;;;;;;;19.02;13.73;;;4.30;96.40;;;;;;5014459;28;20500;-71
2024/01/24 03:53:59;;;;;;;17.90;13.50;;;4.30;96.40;;;;;;5052787;28;20036;-71
2024/01/24 03:56:27;;;;;;;21.35;13.55;;;4.40;96.30;;;;;;5041416;28;20045;-70
2024/01/24 03:58:54;;;;;;;19.58;13.40;;;4.50;96.00;;;;;;5032284;28;20468;-71
2024/01/24 04:01:21;;;;;;;18.45;12.63;;;4.50;95.90;;;;;;5029690;28;20041;-72
2024/01/24 04:03:48;;;;;;;22.52;13.77;;;4.60;95.80;;;;;;5015797;28;20136;-75
2024/01/24 04:06:16;;;;;;;15.93;12.50;;;4.60;95.90;;;;;;5032749;28;20068;-71
2024/01/24 04:08:44;;;;;;;18.95;12.65;;;4.60;95.90;;;;;;5017517;28;20040;-72
2024/01/24 04:11:11;;;;;;;16.90;12.82;;;4.70;95.70;;;;;;5028570;28;20060;-70
2024/01/24 04:13:42;;;;;;;18.92;13.60;;;4.50;95.70;;;;;;5038884;28;20045;-72
2024/01/24 04:16:10;;;;;;;17.30;13.05;;;4.20;96.60;;;;;;5051296;28;20029;-71
2024/01/24 04:18:37;;;;;;;16.48;11.18;;;4.10;96.60;;;;;;5034358;28;20361;-73
2024/01/24 04:21:04;;;;;;;18.17;12.98;;;4.40;96.50;;;;;;5038942;28;20061;-72
2024/01/24 04:23:32;;;;;;;22.63;13.82;;;4.40;96.50;;;;;;5043584;28;20457;-73
2024/01/24 04:25:59;;;;;;;19.88;13.40;;;4.40;96.50;;;;;;5047170;28;20041;-70
2024/01/24 04:28:26;;;;;;;17.88;13.25;;;4.40;96.50;;;;;;5051805;28;20032;-73
2024/01/24 04:30:53;;;;;;;18.58;12.93;;;4.50;96.30;;;;;;5031403;28;20135;-71
2024/01/24 04:33:21;;;;;;;19.23;14.13;;;4.40;96.30;;;;;;5032626;28;20388;-70
2024/01/24 04:35:48;;;;;;;21.23;14.35;;;4.10;96.70;;;;;;5045261;28;20025;-71
2024/01/24 04:38:15;;;;;;;23.77;14.90;;;4.10;97.20;;;;;;5033615;28;20384;-71
2024/01/24 04:40:43;;;;;;;20.55;13.75;;;4.20;97.30;;;;;;5045641;28;20041;-71
2024/01/24 04:43:10;;;;;;;24.80;15.27;;;4.10;97.60;;;;;;5032638;28;20037;-70
2024/01/24 04:45:37;;;;;;;19.42;15.32;;;4.00;97.50;;;;;;5036284;28;20479;-70
2024/01/24 04:48:06;;;;;;;26.60;17.10;;;4.00;97.70;;;;;;5039017;28;20111;-71
2024/01/24 04:50:34;;;;;;;21.52;16.23;;;3.90;97.80;;;;;;5039935;28;20040;-72
2024/01/24 04:53:01;;;;;;;15.68;11.75;;;4.00;97.80;;;;;;5050811;28;20425;-71
2024/01/24 04:55:28;;;;;;;20.40;14.07;;;4.10;97.40;;;;;;5047784;28;20064;-73
2024/01/24 04:57:56;;;;;;;21.10;14.88;;;4.30;96.80;;;;;;5038143;28;20033;-73
2024/01/24 05:00:23;;;;;;;14.05;10.88;;;4.30;96.70;;;;;;5044210;28;20460;-69
2024/01/24 05:02:50;;;;;;;24.02;14.82;;;4.40;96.10;;;;;;5013930;28;20086;-71
2024/01/24 05:05:17;;;;;;;19.55;13.18;;;4.20;96.30;;;;;;5045664;28;20040;-76
2024/01/24 05:07:45;;;;;;;15.77;11.70;;;4.20;96.80;;;;;;5042405;28;20076;-70
2024/01/24 05:10:12;;;;;;;22.90;15.55;;;4.30;96.20;;;;;;5032602;28;20032;-69
2024/01/24 05:12:39;;;;;;;23.25;13.95;;;4.20;96.40;;;;;;5043258;28;20037;-73
2024/01/24 05:15:08;;;;;;;19.67;13.38;;;4.10;96.90;;;;;;5047294;28;20024;-72
2024/01/24 05:17:40;;;;;;;20.48;14.52;;;4.10;96.60;;;;;;5049094;28;20036;-77
2024/01/24 05:20:09;;;;;;;17.75;13.02;;;4.00;97.00;;;;;;5049128;28;20063;-72
2024/01/24 05:22:36;;;;;;;21.13;14.20;;;4.10;96.80;;;;;;5050032;28;20376;-74
2024/01/24 05:25:03;;;;;;;22.17;14.02;;;4.00;96.90;;;;;;5049907;28;20079;-71
2024/01/24 05:27:31;;;;;;;22.58;15.02;;;4.00;97.00;;;;;;5049003;28;20076;-74
2024/01/24 05:29:58;;;;;;;21.08;13.93;;;3.90;97.30;;;;;;5029382;28;20487;-74
2024/01/24 05:32:32;;;;;;;17.75;11.80;;;3.90;97.30;;;;;;5040600;28;20353;-76
2024/01/24 05:34:59;;;;;;;22.73;14.40;;;3.90;96.80;;;;;;5045083;28;20475;-76
2024/01/24 05:37:27;;;;;;;21.63;14.25;;;4.10;96.10;;;;;;5022913;28;20040;-73
2024/01/24 05:39:54;;;;;;;19.48;13.15;;;4.00;96.90;;;;;;5046627;28;20383;-76
2024/01/24 05:42:22;;;;;;;23.38;15.95;;;3.90;97.40;;;;;;5032389;28;20042;-72
2024/01/24 05:44:50;;;;;;;21.35;14.15;;;3.90;97.40;;;;;;5013647;28;20041;-74
2024/01/24 05:47:17;;;;;;;26.67;15.15;;;3.80;97.50;;;;;;5044032;28;20063;-73
2024/01/24 05:49:44;;;;;;;22.95;15.05;;;3.70;97.70;;;;;;5041191;28;20037;-74
2024/01/24 05:52:11;;;;;;;23.45;15.32;;;3.90;97.90;;;;;;5041875;28;20081;-72
2024/01/24 05:54:40;;;;;;;25.42;15.45;;;3.80;97.40;;;;;;5045020;28;20388;-70
2024/01/24 05:57:08;;;;;;;23.50;14.88;;;3.70;98.00;;;;;;5048679;28;20375;-71
2024/01/24 05:59:35;;;;;;;26.25;15.55;;;3.70;98.10;;;;;;5052360;28;20396;-70
2024/01/24 06:02:03;;;;;;;21.60;13.82;;;3.70;98.10;;;;;;5032898;28;20063;-71
2024/01/24 06:04:30;;;;;;;24.27;14.85;;;3.90;97.20;;;;;;5040124;28;20538;-71
2024/01/24 06:07:00;;;;;;;23.27;14.80;;;4.00;97.20;;;;;;5041177;28;20131;-70
2024/01/24 06:09:28;;;;;;;19.23;14.02;;;4.10;97.30;;;;;;5045424;28;20048;-75
2024/01/24 06:11:56;;;;;;;55.55;32.13;;;4.10;97.20;;;;;;5050661;28;20419;-74
2024/01/24 06:14:23;;;;;;;59.55;34.58;;;4.30;96.80;;;;;;5032736;28;20037;-74
2024/01/24 06:16:51;;;;;;;18.48;13.27;;;4.60;97.00;;;;;;5042292;28;20049;-72
2024/01/24 06:19:19;;;;;;;16.85;12.35;;;4.90;94.30;;;;;;5042882;28;20037;-72
2024/01/24 06:21:46;;;;;;;19.70;11.85;;;5.00;93.40;;;;;;5038299;28;20555;-71
2024/01/24 06:24:14;;;;;;;15.20;9.30;;;5.10;92.40;;;;;;5034939;28;20041;-73
2024/01/24 06:26:41;;;;;;;18.13;13.10;;;4.80;91.00;;;;;;5032784;28;20036;-71
2024/01/24 06:29:09;;;;;;;10.38;8.07;;;4.90;92.50;;;;;;5046508;28;20049;-70
2024/01/24 06:31:36;;;;;;;12.68;8.32;;;4.80;90.40;;;;;;5048595;28;20427;-71
2024/01/24 06:34:04;;;;;;;12.95;8.55;;;5.00;88.30;;;;;;5032110;28;20037;-71
2024/01/24 06:36:32;;;;;;;22.63;13.02;;;5.10;88.10;;;;;;5040960;28;20039;-72
2024/01/24 06:39:01;;;;;;;24.83;16.50;;;5.00;91.40;;;;;;5052010;28;20025;-70
2024/01/24 06:41:28;;;;;;;22.50;17.00;;;4.40;94.40;;;;;;5033192;28;20045;-70
2024/01/24 06:43:56;;;;;;;24.90;15.77;;;4.20;94.90;;;;;;5052214;28;20122;-71
2024/01/24 06:46:27;;;;;;;27.35;18.10;;;4.30;95.40;;;;;;5038834;28;20120;-71
2024/01/24 06:48:54;;;;;;;29.55;19.10;;;4.30;95.30;;;;;;5038365;28;20044;-70
2024/01/24 06:51:22;;;;;;;32.75;19.33;;;4.10;95.60;;;;;;5050899;28;20357;-72
2024/01/24 06:53:49;;;;;;;33.20;22.00;;;4.10;96.00;;;;;;5052956;28;20045;-72
2024/01/24 06:56:16;;;;;;;38.38;22.20;;;4.00;96.30;;;;;;5042626;28;20025;-71
2024/01/24 06:58:43;;;;;;;38.45;25.38;;;3.90;96.60;;;;;;5036337;28;20104;-72
2024/01/24 07:01:11;;;;;;;36.47;23.38;;;3.80;96.60;;;;;;5051968;28;20120;-71
2024/01/24 07:03:40;;;;;;;40.13;25.48;;;3.90;96.60;;;;;;5046565;28;20040;-72
2024/01/24 07:06:08;;;;;;;35.13;23.35;;;3.80;96.60;;;;;;5052725;28;20047;-70
2024/01/24 07:08:39;;;;;;;37.55;24.50;;;3.80;96.80;;;;;;5040793;28;20029;-72
2024/01/24 07:11:08;;;;;;;43.33;23.98;;;4.00;96.80;;;;;;5022471;28;20041;-73
2024/01/24 07:13:36;;;;;;;38.42;25.77;;;4.20;96.50;;;;;;5048789;28;20068;-71
2024/01/24 07:16:04;;;;;;;39.78;25.90;;;4.40;96.30;;;;;;5023894;28;20033;-72
2024/01/24 07:18:32;;;;;;;42.75;26.63;;;4.70;96.10;;;;;;5035956;28;20397;-73
2024/01/24 07:21:00;;;;;;;33.50;23.08;;;4.80;95.80;;;;;;5044602;28;20056;-73
2024/01/24 07:23:28;;;;;;;30.83;21.88;;;5.00;95.30;;;;;;5033337;28;20263;-73
2024/01/24 07:25:55;;;;;;;31.10;18.17;;;5.20;93.80;;;;;;5036339;28;20037;-75
2024/01/24 07:28:23;;;;;;;18.63;14.35;;;5.40;93.10;;;;;;5045924;28;20047;-71
2024/01/24 07:30:50;;;;;;;19.95;13.32;;;5.60;92.30;;;;;;5026611;28;20120;-73
2024/01/24 07:33:17;;;;;;;19.02;13.20;;;5.80;91.30;;;;;;5034774;28;20380;-72
2024/01/24 07:35:48;;;;;;;19.23;12.18;;;6.00;90.50;;;;;;5035789;28;20091;-72
2024/01/24 07:38:16;;;;;;;15.95;11.85;;;6.10;90.00;;;;;;5042205;28;20040;-73
2024/01/24 07:40:43;;;;;;;18.48;12.27;;;6.20;88.80;;;;;;5039753;28;20029;-73
2024/01/24 07:43:10;;;;;;;26.77;14.43;;;6.30;88.10;;;;;;5043235;28;20124;-76
2024/01/24 07:45:38;;;;;;;22.83;14.10;;;6.50;88.70;;;;;;5041047;28;20028;-75
2024/01/24 07:48:07;;;;;;;26.33;16.13;;;6.60;89.00;;;;;;5043548;28;20037;-71
2024/01/24 07:50:35;;;;;;;27.00;16.63;;;6.60;90.10;;;;;;5032812;28;20036;-72
2024/01/24 07:53:02;;;;;;;24.60;14.95;;;6.80;90.10;;;;;;5045599;28;20041;-71
2024/01/24 07:55:29;;;;;;;20.67;14.90;;;6.90;89.10;;;;;;5014896;28;20423;-75
2024/01/24 07:58:13;;;;;;;13.23;8.70;;;7.00;88.30;;;;;;5051345;28;20036;-72
2024/01/24 08:00:42;;;;;;;14.13;9.20;;;7.00;84.40;;;;;;5051828;28;20025;-72
2024/01/24 08:03:10;;;;;;;11.18;7.63;;;7.20;83.70;;;;;;5034670;28;20538;-73
2024/01/24 08:05:37;;;;;;;9.38;6.82;;;7.30;81.70;;;;;;5051682;28;20059;-74
2024/01/24 08:08:04;;;;;;;7.18;6.07;;;7.50;81.60;;;;;;5051696;28;20116;-74
2024/01/24 08:10:32;;;;;;;8.05;6.40;;;7.30;80.30;;;;;;5051938;28;20067;-76
2024/01/24 08:12:59;;;;;;;9.95;6.57;;;7.30;80.80;;;;;;5050965;28;20037;-72
2024/01/24 08:15:27;;;;;;;9.57;6.82;;;7.30;81.10;;;;;;5052153;28;20036;-71
2024/01/24 08:17:54;;;;;;;9.25;7.32;;;7.70;81.10;;;;;;5032606;28;20423;-72
2024/01/24 08:20:21;;;;;;;11.13;7.25;;;7.80;80.70;;;;;;5050640;28;20025;-72
2024/01/24 08:22:49;;;;;;;12.50;7.28;;;7.90;80.50;;;;;;5028599;28;20085;-74
2024/01/24 08:25:16;;;;;;;12.07;7.70;;;8.10;79.10;;;;;;5051567;28;20044;-73
2024/01/24 08:27:43;;;;;;;12.68;8.40;;;8.10;79.80;;;;;;5045313;28;20084;-71
2024/01/24 08:30:12;;;;;;;11.27;8.73;;;8.30;79.20;;;;;;5031081;28;20041;-73
2024/01/24 08:32:41;;;;;;;12.40;7.53;;;8.40;79.00;;;;;;5027191;28;20491;-72
2024/01/24 08:35:12;;;;;;;12.55;7.53;;;8.20;79.00;;;;;;5020374;28;20046;-72
2024/01/24 08:37:39;;;;;;;9.60;6.95;;;8.30;77.40;;;;;;5043461;28;20053;-73
2024/01/24 08:40:08;;;;;;;9.45;6.10;;;8.30;76.70;;;;;;5051322;28;20045;-75
2024/01/24 08:42:37;;;;;;;8.88;6.38;;;8.40;76.30;;;;;;5036718;28;20109;-75
2024/01/24 08:45:04;;;;;;;8.40;5.88;;;8.60;75.50;;;;;;5042346;28;20036;-72
2024/01/24 08:47:31;;;;;;;7.55;5.03;;;8.90;74.90;;;;;;5042742;28;20183;-75
2024/01/24 08:49:59;;;;;;;6.25;4.28;;;8.60;73.50;;;;;;5043946;28;20045;-72
2024/01/24 08:52:27;;;;;;;7.68;5.13;;;8.40;74.00;;;;;;5048226;28;20029;-73
2024/01/24 08:54:54;;;;;;;5.93;4.70;;;8.70;74.50;;;;;;5046921;28;20044;-76
2024/01/24 08:57:22;;;;;;;5.35;4.40;;;9.00;72.40;;;;;;5049561;28;20548;-72
2024/01/24 08:59:49;;;;;;;5.28;4.20;;;9.20;71.80;;;;;;5049308;28;20106;-75
2024/01/24 09:02:17;;;;;;;9.02;4.97;;;9.40;71.00;;;;;;5048625;28;20103;-72
2024/01/24 09:04:46;;;;;;;8.80;4.90;;;9.40;70.70;;;;;;5047387;28;20033;-77
2024/01/24 09:07:14;;;;;;;6.07;4.40;;;9.40;70.50;;;;;;5049261;28;20486;-75
2024/01/24 09:09:42;;;;;;;6.22;4.65;;;9.40;69.70;;;;;;5024431;28;20037;-72
2024/01/24 09:12:09;;;;;;;8.38;4.85;;;9.30;70.90;;;;;;5050325;28;20048;-75
2024/01/24 09:14:37;;;;;;;8.63;4.47;;;9.50;70.50;;;;;;5035841;28;20045;-72
2024/01/24 09:17:07;;;;;;;9.30;5.20;;;9.70;69.60;;;;;;5050278;28;20052;-74
2024/01/24 09:19:35;;;;;;;6.75;5.28;;;9.90;69.20;;;;;;5030419;28;20699;-74
2024/01/24 09:22:02;;;;;;;9.02;5.38;;;9.90;69.50;;;;;;5038677;28;20055;-73
2024/01/24 09:24:30;;;;;;;9.05;4.97;;;10.00;67.80;;;;;;5049390;28;20410;-73
2024/01/24 09:26:57;;;;;;;5.07;4.35;;;9.80;68.50;;;;;;5051007;28;20118;-71
2024/01/24 09:29:24;;;;;;;7.43;4.88;;;10.10;67.20;;;;;;5048858;28;20045;-74
2024/01/24 09:31:52;;;;;;;5.03;4.00;;;10.20;66.60;;;;;;5039876;28;20526;-73
2024/01/24 09:34:19;;;;;;;6.43;4.00;;;10.40;66.40;;;;;;5033355;28;20048;-76
2024/01/24 09:36:47;;;;;;;8.50;3.88;;;10.40;65.00;;;;;;5048992;28;20384;-73
2024/01/24 09:39:14;;;;;;;6.68;3.83;;;10.30;65.20;;;;;;5049229;28;20523;-74
2024/01/24 09:41:42;;;;;;;6.53;3.88;;;10.40;64.70;;;;;;5036164;28;20063;-76
2024/01/24 09:44:14;;;;;;;6.47;3.88;;;10.30;65.00;;;;;;5034873;28;20045;-74
2024/01/24 09:46:41;;;;;;;4.47;3.60;;;10.00;64.30;;;;;;5051191;28;20037;-76
2024/01/24 09:49:11;;;;;;;8.45;4.00;;;9.70;65.90;;;;;;5047445;28;20039;-77
2024/01/24 09:51:40;;;;;;;6.28;4.05;;;9.40;68.60;;;;;;5036993;28;20064;-80
2024/01/24 09:54:08;;;;;;;4.60;3.80;;;9.40;67.20;;;;;;5051462;28;20041;-76
2024/01/24 09:56:37;;;;;;;6.00;3.83;;;9.50;67.10;;;;;;5050606;28;20035;-77
2024/01/24 09:59:14;;;;;;;5.88;3.85;;;9.70;66.60;;;;;;5056180;28;20116;-76
2024/01/24 10:01:41;;;;;;;5.97;3.97;;;9.60;68.10;;;;;;5038824;28;20037;-77
2024/01/24 10:04:14;;;;;;;5.43;4.30;;;9.70;66.70;;;;;;5056486;28;20106;-75
2024/01/24 10:06:43;;;;;;;7.93;4.43;;;10.00;67.80;;;;;;5052438;28;20037;-75
2024/01/24 10:09:10;;;;;;;6.82;4.15;;;9.90;66.80;;;;;;5042363;28;20095;-73
2024/01/24 10:11:37;;;;;;;8.10;5.28;;;9.60;67.50;;;;;;5054083;28;20079;-73
2024/01/24 10:14:05;;;;;;;6.38;4.25;;;9.80;67.60;;;;;;5041385;28;20029;-73
2024/01/24 10:16:32;;;;;;;5.22;3.60;;;9.60;67.70;;;;;;5033393;28;20061;-73
2024/01/24 10:19:00;;;;;;;5.10;3.63;;;9.50;66.30;;;;;;5027496;28;20461;-75
2024/01/24 10:21:28;;;;;;;5.15;4.00;;;9.50;67.30;;;;;;5044481;28;20476;-73
2024/01/24 10:23:57;;;;;;;6.90;4.18;;;9.70;67.70;;;;;;5045784;28;20041;-75
2024/01/24 10:26:26;;;;;;;8.05;4.22;;;10.10;66.50;;;;;;5045061;28;20054;-76
2024/01/24 10:28:54;;;;;;;7.03;4.25;;;9.80;66.30;;;;;;5051549;28;20420;-73
2024/01/24 10:31:24;;;;;;;8.68;4.07;;;9.90;65.80;;;;;;5047767;28;20033;-75
2024/01/24 10:33:58;;;;;;;6.72;4.43;;;9.80;66.00;;;;;;5043666;28;20039;-73
2024/01/24 10:36:28;;;;;;;6.28;3.75;;;10.10;65.50;;;;;;5045494;28;20040;-71
2024/01/24 10:39:03;;;;;;;4.55;3.50;;;10.80;65.00;;;;;;5050512;28;20037;-71
2024/01/24 10:41:31;;;;;;;;;;;11.10;62.90;;;;;;5056880;28;20120;-73
2024/01/24 10:44:06;;;;;;;5.10;3.50;;;10.10;64.80;;;;;;5042588;28;19920;-71
2024/01/24 10:46:36;;;;;;;6.45;3.88;;;10.10;64.20;;;;;;5043118;28;20025;-73
2024/01/24 10:49:05;;;;;;;6.15;3.83;;;9.90;64.30;;;;;;5042225;28;20037;-74
2024/01/24 10:51:34;;;;;;;5.63;3.72;;;9.60;64.40;;;;;;5046150;28;20372;-71
2024/01/24 10:54:07;;;;;;;5.35;4.00;;;9.60;64.60;;;;;;5033314;28;20037;-72
2024/01/24 10:56:37;;;;;;;5.10;3.67;;;10.10;64.10;;;;;;5044210;28;20067;-72
2024/01/24 10:59:05;;;;;;;4.55;3.50;;;10.60;63.50;;;;;;5033415;28;20479;-72
2024/01/24 11:01:33;;;;;;;10.68;4.28;;;10.80;62.30;;;;;;5018100;28;20036;-73
2024/01/24 11:04:04;;;;;;;5.65;3.88;;;10.80;62.30;;;;;;5039832;28;20127;-72
2024/01/24 11:06:43;;;;;;;5.50;3.47;;;10.20;62.20;;;;;;5041856;28;20056;-72
2024/01/24 11:09:23;;;;;;;4.22;3.40;;;9.90;64.00;;;;;;5045637;28;20095;-71
2024/01/24 11:11:54;;;;;;;5.80;3.60;;;10.80;61.60;;;;;;5047127;28;20052;-74
2024/01/24 11:14:33;;;;;;;4.60;3.40;;;11.00;61.00;;;;;;5044868;28;20041;-73
2024/01/24 11:17:03;;;;;;;6.75;3.70;;;12.50;58.60;;;;;;5043658;28;20041;-73
2024/01/24 11:19:30;;;;;;;4.47;3.23;;;13.00;56.90;;;;;;5046082;28;20037;-72
2024/01/24 11:22:06;;;;;;;5.82;3.47;;;12.00;57.40;;;;;;5047847;28;20036;-74
2024/01/24 11:24:46;;;;;;;4.47;2.63;;;13.70;58.00;;;;;;5042110;28;20041;-73
2024/01/24 11:27:34;;;;;;;5.50;2.55;;;12.60;56.80;;;;;;5036728;28;20039;-72
2024/01/24 11:30:16;;;;;;;6.30;2.30;;;12.10;56.80;;;;;;5046431;28;20055;-71
2024/01/24 11:32:50;;;;;;;8.57;2.50;;;12.40;57.40;;;;;;5030625;28;20043;-75
2024/01/24 11:35:40;;;;;;;6.55;2.15;;;13.40;57.70;;;;;;5042197;28;20123;-71
2024/01/24 11:38:17;;;;;;;4.70;1.85;;;12.30;58.20;;;;;;5049449;28;20037;-72
2024/01/24 11:40:59;;;;;;;5.18;1.88;;;12.00;56.80;;;;;;5042680;28;20049;-76
2024/01/24 11:43:27;;;;;;;6.25;2.03;;;12.00;56.80;;;;;;5034874;28;20095;-75
2024/01/24 11:46:03;;;;;;;5.80;2.03;;;11.70;57.50;;;;;;5047455;28;20041;-74
2024/01/24 11:48:33;;;;;;;7.10;1.77;;;12.80;57.60;;;;;;5045765;28;20053;-71
2024/01/24 11:51:01;;;;;;;3.35;1.90;;;12.20;56.10;;;;;;5032859;28;20499;-72
2024/01/24 11:53:29;;;;;;;5.00;2.40;;;11.80;55.70;;;;;;5036487;28;20030;-73
2024/01/24 11:55:59;;;;;;;5.93;2.40;;;11.20;56.10;;;;;;5040808;28;20072;-72
2024/01/24 11:58:28;;;;;;;;;;;11.30;56.30;;;;;;5051211;28;20025;-72
2024/01/24 12:00:58;;;;;;;4.40;2.55;;;11.50;56.40;;;;;;5049122;28;19920;-72
2024/01/24 12:03:26;;;;;;;4.40;2.92;;;11.80;56.20;;;;;;5046118;28;20194;-73
2024/01/24 12:05:53;;;;;;;6.03;3.05;;;12.20;55.10;;;;;;5052046;28;20071;-71
2024/01/24 12:08:21;;;;;;;7.82;3.30;;;12.60;55.10;;;;;;5042513;28;20025;-71
2024/01/24 12:10:49;;;;;;;4.57;3.17;;;12.20;55.30;;;;;;5045782;28;20407;-75
2024/01/24 12:13:21;;;;;;;5.95;3.10;;;13.40;54.70;;;;;;5035665;28;20036;-73
2024/01/24 12:15:50;;;;;;;7.30;3.08;;;13.20;54.80;;;;;;5034490;28;20034;-73
2024/01/24 12:18:18;;;;;;;5.77;3.50;;;13.50;55.00;;;;;;5023818;28;20048;-74
2024/01/24 12:20:48;;;;;;;6.93;3.08;;;14.40;52.80;;;;;;5037229;28;20285;-73
2024/01/24 12:23:16;;;;;;;5.63;3.40;;;13.80;53.90;;;;;;5051185;28;20121;-71
2024/01/24 12:25:44;;;;;;;8.63;3.67;;;14.00;54.00;;;;;;5048872;28;20037;-70
2024/01/24 12:28:12;;;;;;;6.32;3.30;;;14.20;52.60;;;;;;5043679;28;20383;-73
2024/01/24 12:30:46;;;;;;;6.22;3.15;;;18.50;50.10;;;;;;5041428;28;20122;-72
2024/01/24 12:33:17;;;;;;;6.75;3.45;;;17.10;48.70;;;;;;5032827;28;20571;-71
2024/01/24 12:35:46;;;;;;;6.57;3.17;;;19.10;47.20;;;;;;5040699;28;20482;-73
2024/01/24 12:38:15;;;;;;;8.40;3.22;;;15.80;49.80;;;;;;5018303;28;20038;-72
2024/01/24 12:40:52;;;;;;;5.97;2.88;;;14.20;53.40;;;;;;5027027;28;20064;-72
2024/01/24 12:43:22;;;;;;;4.00;2.35;;;15.60;52.10;;;;;;5037350;28;20516;-72
2024/01/24 12:45:52;;;;;;;8.70;2.40;;;16.90;48.90;;;;;;5038381;28;20036;-71
2024/01/24 12:48:20;;;;;;;7.15;2.13;;;17.60;48.10;;;;;;5043514;28;20396;-74
2024/01/24 12:50:50;;;;;;;7.53;2.00;;;17.90;48.80;;;;;;5034734;28;20048;-72